createdAt,value
2017-08-19T00:00:22.096Z,0
2017-08-19T00:01:22.172Z,0
2017-08-19T00:02:22.151Z,0
2017-08-19T00:03:22.180Z,0
2017-08-19T00:04:22.194Z,0
2017-08-19T00:05:22.134Z,0
2017-08-19T00:06:22.115Z,0
2017-08-19T00:07:22.100Z,0
2017-08-19T00:08:22.207Z,0
2017-08-19T00:09:22.277Z,0
2017-08-19T00:10:22.166Z,0
2017-08-19T00:11:22.107Z,0
2017-08-19T00:12:22.133Z,0
2017-08-19T00:13:22.111Z,0
2017-08-19T00:14:22.250Z,0
2017-08-19T00:15:22.081Z,0
2017-08-19T00:16:22.135Z,0
2017-08-19T00:17:22.134Z,0
2017-08-19T00:18:22.134Z,0
2017-08-19T00:19:22.185Z,0
2017-08-19T00:20:22.079Z,0
2017-08-19T00:21:22.141Z,0
2017-08-19T00:22:22.147Z,0
2017-08-19T00:23:22.127Z,0
2017-08-19T00:24:22.134Z,0
2017-08-19T00:25:22.214Z,0
2017-08-19T00:26:22.163Z,0
2017-08-19T00:27:22.174Z,0
2017-08-19T00:28:22.118Z,0
2017-08-19T00:29:22.119Z,0
2017-08-19T00:30:22.148Z,0
2017-08-19T00:31:22.227Z,0
2017-08-19T00:32:22.147Z,0
2017-08-19T00:33:22.122Z,0
2017-08-19T00:34:22.133Z,0
2017-08-19T00:35:22.116Z,0
2017-08-19T00:36:22.108Z,0
2017-08-19T00:37:22.262Z,0
2017-08-19T00:38:22.101Z,0
2017-08-19T00:39:22.115Z,0
2017-08-19T00:40:22.099Z,0
2017-08-19T00:41:22.140Z,0
2017-08-19T00:42:22.212Z,0
2017-08-19T00:43:22.199Z,0
2017-08-19T00:44:22.159Z,0
2017-08-19T00:45:22.342Z,0
2017-08-19T00:46:22.135Z,0
2017-08-19T00:47:22.173Z,0
2017-08-19T00:48:22.208Z,0
2017-08-19T00:49:22.139Z,0
2017-08-19T00:50:22.194Z,0
2017-08-19T00:51:22.199Z,0
2017-08-19T00:52:22.130Z,0
2017-08-19T00:53:22.305Z,0
2017-08-19T00:54:22.199Z,0
2017-08-19T00:55:22.151Z,0
2017-08-19T00:56:22.183Z,0
2017-08-19T00:57:22.230Z,0
2017-08-19T00:58:22.242Z,0
2017-08-19T00:59:22.208Z,0
2017-08-19T01:00:22.142Z,0
2017-08-19T01:01:22.151Z,0
2017-08-19T01:02:22.120Z,0
2017-08-19T01:03:22.151Z,0
2017-08-19T01:04:22.150Z,0
2017-08-19T01:05:22.136Z,0
2017-08-19T01:06:22.118Z,0
2017-08-19T01:07:22.072Z,0
2017-08-19T01:08:22.141Z,0
2017-08-19T01:09:22.155Z,0
2017-08-19T01:10:22.083Z,0
2017-08-19T01:11:22.150Z,0
2017-08-19T01:12:22.158Z,0
2017-08-19T01:13:22.123Z,0
2017-08-19T01:14:22.189Z,0
2017-08-19T01:15:22.171Z,0
2017-08-19T01:16:22.124Z,0
2017-08-19T01:17:22.188Z,0
2017-08-19T01:18:22.149Z,0
2017-08-19T01:19:22.144Z,0
2017-08-19T01:20:22.217Z,0
2017-08-19T01:21:22.157Z,0
2017-08-19T01:22:22.176Z,0
2017-08-19T01:23:22.146Z,0
2017-08-19T01:24:22.145Z,0
2017-08-19T01:25:22.216Z,0
2017-08-19T01:26:22.153Z,0
2017-08-19T01:27:22.207Z,0
2017-08-19T01:28:22.216Z,0
2017-08-19T01:29:22.188Z,0
2017-08-19T01:30:22.225Z,0
2017-08-19T01:31:22.181Z,0
2017-08-19T01:32:22.205Z,0
2017-08-19T01:33:22.143Z,0
2017-08-19T01:34:22.174Z,0
2017-08-19T01:35:22.207Z,0
2017-08-19T01:36:22.147Z,0
2017-08-19T01:37:22.206Z,0
2017-08-19T01:38:22.189Z,0
2017-08-19T01:39:22.209Z,0
2017-08-19T01:40:22.174Z,0
2017-08-19T01:41:22.173Z,0
2017-08-19T01:42:22.153Z,0
2017-08-19T01:43:22.177Z,0
2017-08-19T01:44:22.184Z,0
2017-08-19T01:45:22.217Z,0
2017-08-19T01:46:22.152Z,0
2017-08-19T01:47:22.155Z,0
2017-08-19T01:48:22.153Z,0
2017-08-19T01:49:22.219Z,0
2017-08-19T01:50:22.219Z,0
2017-08-19T01:51:22.214Z,0
2017-08-19T01:52:22.192Z,0
2017-08-19T01:53:22.217Z,0
2017-08-19T01:54:22.237Z,0
2017-08-19T01:55:22.255Z,0
2017-08-19T01:56:22.168Z,0
2017-08-19T01:57:22.200Z,0
2017-08-19T01:58:22.199Z,0
2017-08-19T01:59:22.173Z,0
2017-08-19T02:00:22.201Z,0
2017-08-19T02:01:22.195Z,0
2017-08-19T02:02:22.235Z,0
2017-08-19T02:03:22.228Z,0
2017-08-19T02:04:22.196Z,0
2017-08-19T02:05:22.211Z,0
2017-08-19T02:06:22.196Z,0
2017-08-19T02:07:22.171Z,0
2017-08-19T02:08:22.175Z,0
2017-08-19T02:09:22.235Z,0
2017-08-19T02:10:22.248Z,0
2017-08-19T02:11:22.241Z,0
2017-08-19T02:12:22.183Z,0
2017-08-19T02:13:22.260Z,0
2017-08-19T02:14:22.304Z,0
2017-08-19T02:15:22.203Z,0
2017-08-19T02:16:22.234Z,0
2017-08-19T02:17:22.231Z,0
2017-08-19T02:18:22.211Z,0
2017-08-19T02:19:22.241Z,0
2017-08-19T02:20:22.274Z,0
2017-08-19T02:21:22.182Z,0
2017-08-19T02:22:22.158Z,0
2017-08-19T02:23:22.249Z,0
2017-08-19T02:24:22.205Z,0
2017-08-19T02:25:22.157Z,0
2017-08-19T02:26:22.252Z,0
2017-08-19T02:27:22.209Z,0
2017-08-19T02:28:22.253Z,0
2017-08-19T02:29:22.206Z,0
2017-08-19T02:30:22.137Z,0
2017-08-19T02:31:22.166Z,0
2017-08-19T02:32:22.227Z,0
2017-08-19T02:33:22.260Z,0
2017-08-19T02:34:22.188Z,0
2017-08-19T02:35:22.276Z,0
2017-08-19T02:36:22.261Z,0
2017-08-19T02:37:22.243Z,0
2017-08-19T02:38:22.213Z,0
2017-08-19T02:39:22.298Z,0
2017-08-19T02:40:22.278Z,0
2017-08-19T02:41:22.190Z,0
2017-08-19T02:42:22.268Z,0
2017-08-19T02:43:22.230Z,0
2017-08-19T02:44:22.296Z,0
2017-08-19T02:45:22.221Z,0
2017-08-19T02:46:22.226Z,0
2017-08-19T02:47:22.251Z,0
2017-08-19T02:48:22.235Z,0
2017-08-19T02:49:22.250Z,0
2017-08-19T02:50:22.204Z,0
2017-08-19T02:51:22.201Z,0
2017-08-19T02:52:22.184Z,0
2017-08-19T02:53:22.171Z,0
2017-08-19T02:54:22.269Z,0
2017-08-19T02:55:22.201Z,0
2017-08-19T02:56:22.226Z,0
2017-08-19T02:57:22.198Z,0
2017-08-19T02:58:22.179Z,0
2017-08-19T02:59:22.222Z,0
2017-08-19T03:00:22.250Z,0
2017-08-19T03:01:22.179Z,0
2017-08-19T03:02:22.230Z,0
2017-08-19T03:03:22.229Z,0
2017-08-19T03:04:22.155Z,0
2017-08-19T03:05:22.214Z,0
2017-08-19T03:06:22.205Z,0
2017-08-19T03:07:22.220Z,0
2017-08-19T03:08:22.187Z,0
2017-08-19T03:09:22.206Z,0
2017-08-19T03:10:22.230Z,0
2017-08-19T03:11:22.193Z,0
2017-08-19T03:12:22.229Z,0
2017-08-19T03:13:22.232Z,0
2017-08-19T03:14:22.236Z,0
2017-08-19T03:15:22.209Z,0
2017-08-19T03:16:22.206Z,0
2017-08-19T03:17:22.237Z,0
2017-08-19T03:18:22.238Z,0
2017-08-19T03:19:22.240Z,0
2017-08-19T03:20:22.212Z,0
2017-08-19T03:21:22.237Z,0
2017-08-19T03:22:22.283Z,0
2017-08-19T03:23:22.308Z,0
2017-08-19T03:24:22.241Z,0
2017-08-19T03:25:22.222Z,0
2017-08-19T03:26:22.272Z,0
2017-08-19T03:27:22.315Z,0
2017-08-19T03:28:22.248Z,0
2017-08-19T03:29:22.259Z,0
2017-08-19T03:30:22.260Z,0
2017-08-19T03:31:22.276Z,0
2017-08-19T03:32:22.280Z,0
2017-08-19T03:33:22.239Z,0
2017-08-19T03:34:22.242Z,0
2017-08-19T03:35:22.282Z,4
2017-08-19T03:36:22.228Z,4
2017-08-19T03:37:22.247Z,4
2017-08-19T03:38:22.221Z,4
2017-08-19T03:39:22.282Z,4
2017-08-19T03:40:22.282Z,4
2017-08-19T03:41:22.277Z,8
2017-08-19T03:42:22.333Z,8
2017-08-19T03:43:22.320Z,8
2017-08-19T03:44:22.296Z,12
2017-08-19T03:45:22.318Z,12
2017-08-19T03:46:22.260Z,16
2017-08-19T03:47:22.330Z,16
2017-08-19T03:48:22.260Z,20
2017-08-19T03:49:22.328Z,24
2017-08-19T03:50:22.302Z,28
2017-08-19T03:51:22.324Z,36
2017-08-19T03:52:22.337Z,40
2017-08-19T03:53:22.241Z,48
2017-08-19T03:54:22.235Z,56
2017-08-19T03:55:22.244Z,64
2017-08-19T03:56:22.325Z,76
2017-08-19T03:57:22.274Z,88
2017-08-19T03:58:22.272Z,100
2017-08-19T03:59:22.268Z,116
2017-08-19T04:00:22.330Z,136
2017-08-19T04:01:22.307Z,152
2017-08-19T04:02:22.239Z,172
2017-08-19T04:03:22.196Z,196
2017-08-19T04:04:22.256Z,224
2017-08-19T04:05:22.311Z,248
2017-08-19T04:06:22.217Z,280
2017-08-19T04:07:22.226Z,308
2017-08-19T04:08:22.267Z,340
2017-08-19T04:09:22.218Z,376
2017-08-19T04:10:22.264Z,412
2017-08-19T04:11:22.272Z,448
2017-08-19T04:12:22.199Z,484
2017-08-19T04:13:22.267Z,528
2017-08-19T04:14:22.267Z,568
2017-08-19T04:15:22.254Z,612
2017-08-19T04:16:22.222Z,656
2017-08-19T04:17:22.272Z,700
2017-08-19T04:18:22.247Z,748
2017-08-19T04:19:22.253Z,804
2017-08-19T04:20:22.248Z,860
2017-08-19T04:21:22.283Z,920
2017-08-19T04:22:22.251Z,980
2017-08-19T04:23:22.249Z,1048
2017-08-19T04:24:22.305Z,1116
2017-08-19T04:25:22.248Z,1188
2017-08-19T04:26:22.309Z,1268
2017-08-19T04:27:22.280Z,1340
2017-08-19T04:28:22.279Z,1420
2017-08-19T04:29:22.249Z,1500
2017-08-19T04:30:22.281Z,1580
2017-08-19T04:31:22.281Z,1664
2017-08-19T04:32:22.315Z,1748
2017-08-19T04:33:22.315Z,1832
2017-08-19T04:34:22.286Z,1912
2017-08-19T04:35:22.292Z,2004
2017-08-19T04:36:22.327Z,2092
2017-08-19T04:37:22.296Z,2180
2017-08-19T04:38:22.286Z,2276
2017-08-19T04:39:22.300Z,2368
2017-08-19T04:40:22.269Z,2464
2017-08-19T04:41:22.366Z,2560
2017-08-19T04:42:22.266Z,2652
2017-08-19T04:43:22.267Z,2752
2017-08-19T04:44:22.338Z,2844
2017-08-19T04:45:22.290Z,2948
2017-08-19T04:46:22.330Z,3056
2017-08-19T04:47:22.366Z,3160
2017-08-19T04:48:22.301Z,3268
2017-08-19T04:49:22.355Z,3388
2017-08-19T04:50:22.302Z,3484
2017-08-19T04:51:22.385Z,3600
2017-08-19T04:52:22.326Z,3716
2017-08-19T04:53:22.306Z,3832
2017-08-19T04:54:22.276Z,3944
2017-08-19T04:55:22.309Z,4076
2017-08-19T04:56:22.274Z,4200
2017-08-19T04:57:22.277Z,4312
2017-08-19T04:58:22.273Z,4432
2017-08-19T04:59:22.344Z,4556
2017-08-19T05:00:22.330Z,4672
2017-08-19T05:01:22.303Z,4808
2017-08-19T05:02:22.349Z,4960
2017-08-19T05:03:22.338Z,5068
2017-08-19T05:04:22.256Z,5204
2017-08-19T05:05:22.299Z,5352
2017-08-19T05:06:22.337Z,5472
2017-08-19T05:07:22.273Z,5600
2017-08-19T05:08:22.306Z,5740
2017-08-19T05:09:22.278Z,5876
2017-08-19T05:10:22.294Z,6040
2017-08-19T05:11:22.277Z,6188
2017-08-19T05:12:22.302Z,6352
2017-08-19T05:13:22.341Z,6496
2017-08-19T05:14:22.307Z,6672
2017-08-19T05:15:22.313Z,6820
2017-08-19T05:16:22.343Z,6956
2017-08-19T05:17:22.348Z,7116
2017-08-19T05:18:22.321Z,7280
2017-08-19T05:19:22.290Z,7420
2017-08-19T05:20:22.345Z,7616
2017-08-19T05:21:22.379Z,7820
2017-08-19T05:22:22.320Z,8000
2017-08-19T05:23:22.384Z,8216
2017-08-19T05:24:22.316Z,8436
2017-08-19T05:25:22.382Z,8584
2017-08-19T05:26:22.382Z,8744
2017-08-19T05:27:22.327Z,8912
2017-08-19T05:28:22.318Z,9164
2017-08-19T05:29:22.324Z,9308
2017-08-19T05:30:22.359Z,9484
2017-08-19T05:31:22.385Z,9684
2017-08-19T05:32:22.313Z,9904
2017-08-19T05:33:22.314Z,9980
2017-08-19T05:34:22.295Z,10136
2017-08-19T05:35:22.260Z,10256
2017-08-19T05:36:22.321Z,10388
2017-08-19T05:37:22.314Z,10552
2017-08-19T05:38:22.307Z,10740
2017-08-19T05:39:22.318Z,10880
2017-08-19T05:40:22.318Z,11056
2017-08-19T05:41:22.317Z,11188
2017-08-19T05:42:22.316Z,11352
2017-08-19T05:43:22.354Z,11548
2017-08-19T05:44:22.396Z,11640
2017-08-19T05:45:22.298Z,11796
2017-08-19T05:46:25.308Z,11900
2017-08-19T05:47:22.374Z,11868
2017-08-19T05:48:22.329Z,12136
2017-08-19T05:49:25.438Z,12328
2017-08-19T05:50:22.383Z,18920
2017-08-19T05:51:22.304Z,31264
2017-08-19T05:52:22.306Z,38112
2017-08-19T05:53:22.405Z,38368
2017-08-19T05:54:23.433Z,38944
2017-08-19T05:55:23.439Z,41568
2017-08-19T05:56:22.359Z,40832
2017-08-19T05:57:22.329Z,42304
2017-08-19T05:58:22.314Z,43008
2017-08-19T05:59:22.412Z,43584
2017-08-19T06:00:22.402Z,44832
2017-08-19T06:01:22.314Z,45376
2017-08-19T06:02:23.367Z,45600
2017-08-19T06:03:22.375Z,46784
2017-08-19T06:05:22.391Z,47520
2017-08-19T06:06:22.317Z,47680
2017-08-19T06:07:22.376Z,48480
2017-08-19T06:08:22.324Z,48992
2017-08-19T06:09:22.413Z,49856
2017-08-19T06:10:25.425Z,50592
2017-08-19T06:11:22.328Z,52064
2017-08-19T06:12:22.427Z,52128
2017-08-19T06:13:23.445Z,53152
2017-08-19T06:14:22.406Z,53280
2017-08-19T06:15:22.395Z,53824
2017-08-19T06:16:22.326Z,53024
2017-08-19T06:17:23.360Z,53056
2017-08-19T06:18:22.356Z,55104
2017-08-19T06:19:22.364Z,54656
2017-08-19T06:20:22.390Z,55648
2017-08-19T06:21:22.380Z,56512
2017-08-19T06:22:22.354Z,57056
2017-08-19T06:23:22.428Z,57696
2017-08-19T06:24:22.365Z,59072
2017-08-19T06:25:22.394Z,59424
2017-08-19T06:26:22.373Z,61024
2017-08-19T06:27:22.422Z,61760
2017-08-19T06:28:23.337Z,61920
2017-08-19T06:29:23.336Z,62240
2017-08-19T06:30:22.396Z,63488
2017-08-19T06:31:22.370Z,63264
2017-08-19T06:32:22.387Z,63008
2017-08-19T06:33:22.342Z,63136
2017-08-19T06:34:22.371Z,64672
2017-08-19T06:35:22.405Z,65952
2017-08-19T06:36:22.437Z,66272
2017-08-19T06:37:22.377Z,66048
2017-08-19T06:38:22.368Z,69888
2017-08-19T06:39:22.384Z,66368
2017-08-19T06:40:22.407Z,65888
2017-08-19T06:41:22.342Z,66752
2017-08-19T06:42:22.346Z,67584
2017-08-19T06:43:22.442Z,69568
2017-08-19T06:44:22.349Z,70048
2017-08-19T06:45:22.381Z,70048
2017-08-19T06:46:22.404Z,70016
2017-08-19T06:47:22.439Z,69632
2017-08-19T06:48:22.414Z,71552
2017-08-19T06:49:22.356Z,69888
2017-08-19T06:50:23.387Z,71168
2017-08-19T06:51:22.352Z,69472
2017-08-19T06:52:22.355Z,71424
2017-08-19T06:53:22.253Z,71584
2017-08-19T06:54:22.246Z,72064
2017-08-19T06:55:22.293Z,72640
2017-08-19T06:56:22.339Z,74688
2017-08-19T06:57:22.299Z,37728
2017-08-19T06:58:22.252Z,75136
2017-08-19T06:59:22.256Z,75744
2017-08-19T07:00:22.260Z,76288
2017-08-19T07:01:22.263Z,75904
2017-08-19T07:02:22.344Z,81376
2017-08-19T07:03:22.423Z,80640
2017-08-19T07:04:22.394Z,82080
2017-08-19T07:05:22.398Z,85440
2017-08-19T07:06:22.363Z,70112
2017-08-19T07:07:22.392Z,83808
2017-08-19T07:08:22.385Z,82112
2017-08-19T07:09:22.382Z,81792
2017-08-19T07:10:22.397Z,20448
2017-08-19T07:11:22.371Z,23020
2017-08-19T07:12:22.361Z,85312
2017-08-19T07:13:22.361Z,85088
2017-08-19T07:14:22.398Z,88576
2017-08-19T07:15:22.422Z,87904
2017-08-19T07:16:22.428Z,87200
2017-08-19T07:17:22.392Z,84992
2017-08-19T07:18:22.366Z,20992
2017-08-19T07:19:22.424Z,83744
2017-08-19T07:20:22.462Z,86400
2017-08-19T07:21:22.409Z,85952
2017-08-19T07:22:22.394Z,90816
2017-08-19T07:23:22.390Z,93504
2017-08-19T07:24:22.363Z,93024
2017-08-19T07:25:22.353Z,92544
2017-08-19T07:26:22.325Z,94816
2017-08-19T07:27:22.366Z,95872
2017-08-19T07:28:22.366Z,96192
2017-08-19T07:29:22.350Z,96800
2017-08-19T07:30:22.381Z,95680
2017-08-19T07:31:22.377Z,96928
2017-08-19T07:32:22.370Z,92480
2017-08-19T07:33:22.424Z,96704
2017-08-19T07:34:22.351Z,97408
2017-08-19T07:35:22.394Z,96320
2017-08-19T07:36:22.315Z,96704
2017-08-19T07:37:22.353Z,99808
2017-08-19T07:38:22.378Z,99296
2017-08-19T07:39:22.395Z,100384
2017-08-19T07:40:22.396Z,100928
2017-08-19T07:41:22.395Z,102336
2017-08-19T07:42:22.402Z,102304
2017-08-19T07:43:22.475Z,102304
2017-08-19T07:44:22.390Z,102272
2017-08-19T07:45:22.406Z,103488
2017-08-19T07:46:22.484Z,103872
2017-08-19T07:47:22.423Z,103808
2017-08-19T07:48:22.384Z,105088
2017-08-19T07:49:22.450Z,105504
2017-08-19T07:50:22.420Z,104928
2017-08-19T07:51:22.390Z,105984
2017-08-19T07:52:22.458Z,107488
2017-08-19T07:53:22.368Z,107904
2017-08-19T07:54:22.446Z,112352
2017-08-19T07:55:22.373Z,108704
2017-08-19T07:56:22.441Z,108544
2017-08-19T07:57:22.410Z,107872
2017-08-19T07:58:22.448Z,108384
2017-08-19T07:59:22.450Z,109344
2017-08-19T08:00:22.416Z,107616
2017-08-19T08:01:22.451Z,105024
2017-08-19T08:02:22.441Z,108640
2017-08-19T08:03:22.398Z,110400
2017-08-19T08:04:22.431Z,107136
2017-08-19T08:05:22.397Z,111136
2017-08-19T08:06:22.426Z,110848
2017-08-19T08:07:22.491Z,110848
2017-08-19T08:08:22.391Z,112000
2017-08-19T08:09:22.401Z,110208
2017-08-19T08:10:22.394Z,113472
2017-08-19T08:11:22.393Z,111648
2017-08-19T08:12:22.419Z,115776
2017-08-19T08:13:22.432Z,115744
2017-08-19T08:14:22.376Z,116096
2017-08-19T08:15:22.284Z,112576
2017-08-19T08:16:22.297Z,113952
2017-08-19T08:17:22.297Z,116704
2017-08-19T08:18:22.331Z,114880
2017-08-19T08:19:22.339Z,114560
2017-08-19T08:20:22.299Z,115712
2017-08-19T08:21:22.341Z,118400
2017-08-19T08:22:22.305Z,107968
2017-08-19T08:23:22.345Z,117312
2017-08-19T08:24:22.485Z,117536
2017-08-19T08:25:22.432Z,117888
2017-08-19T08:26:22.480Z,118400
2017-08-19T08:27:22.481Z,119136
2017-08-19T08:28:22.445Z,121504
2017-08-19T08:29:22.453Z,121152
2017-08-19T08:30:22.434Z,122432
2017-08-19T08:31:22.493Z,124384
2017-08-19T08:32:22.467Z,124192
2017-08-19T08:33:22.480Z,124704
2017-08-19T08:34:22.465Z,124320
2017-08-19T08:35:22.434Z,129280
2017-08-19T08:36:22.527Z,125760
2017-08-19T08:37:22.444Z,128416
2017-08-19T08:38:22.509Z,130784
2017-08-19T08:39:22.422Z,133280
2017-08-19T08:40:22.451Z,127712
2017-08-19T08:41:22.437Z,131648
2017-08-19T08:42:22.437Z,142592
2017-08-19T08:43:22.474Z,167168
2017-08-19T08:44:22.457Z,46144
2017-08-19T08:45:22.445Z,19420
2017-08-19T08:46:22.461Z,48576
2017-08-19T08:47:22.417Z,46368
2017-08-19T08:48:22.511Z,46784
2017-08-19T08:49:22.482Z,46464
2017-08-19T08:50:22.422Z,44544
2017-08-19T08:51:22.485Z,45664
2017-08-19T08:52:22.463Z,45632
2017-08-19T08:53:22.447Z,45888
2017-08-19T08:54:22.421Z,46592
2017-08-19T08:55:22.429Z,46144
2017-08-19T08:56:22.454Z,47648
2017-08-19T08:57:22.421Z,47232
2017-08-19T08:58:22.423Z,46752
2017-08-19T08:59:22.376Z,47200
2017-08-19T09:00:22.399Z,47840
2017-08-19T09:01:22.451Z,48032
2017-08-19T09:02:22.460Z,47904
2017-08-19T09:03:22.414Z,47840
2017-08-19T09:04:22.454Z,47904
2017-08-19T09:05:22.444Z,47232
2017-08-19T09:06:22.437Z,47648
2017-08-19T09:07:22.445Z,48032
2017-08-19T09:08:22.456Z,48352
2017-08-19T09:09:22.417Z,49952
2017-08-19T09:10:22.452Z,48096
2017-08-19T09:11:22.459Z,47264
2017-08-19T09:12:22.500Z,55488
2017-08-19T09:13:22.409Z,28608
2017-08-19T09:14:22.510Z,23616
2017-08-19T09:15:22.438Z,57664
2017-08-19T09:16:22.509Z,58112
2017-08-19T09:17:22.467Z,59744
2017-08-19T09:18:22.440Z,55264
2017-08-19T09:19:22.504Z,57920
2017-08-19T09:20:22.478Z,31296
2017-08-19T09:21:22.538Z,61152
2017-08-19T09:22:22.542Z,63616
2017-08-19T09:23:22.497Z,65184
2017-08-19T09:24:22.507Z,58144
2017-08-19T09:25:22.473Z,60096
2017-08-19T09:26:22.506Z,46752
2017-08-19T09:27:22.511Z,73088
2017-08-19T09:28:22.519Z,158528
2017-08-19T09:29:22.544Z,46144
2017-08-19T09:30:22.509Z,41120
2017-08-19T09:31:22.476Z,45888
2017-08-19T09:32:22.476Z,49664
2017-08-19T09:33:22.512Z,50144
2017-08-19T09:34:22.454Z,45536
2017-08-19T09:35:22.401Z,71648
2017-08-19T09:36:22.471Z,166560
2017-08-19T09:37:22.420Z,61120
2017-08-19T09:38:22.472Z,52736
2017-08-19T09:39:22.483Z,80608
2017-08-19T09:40:22.472Z,152320
2017-08-19T09:41:22.474Z,152928
2017-08-19T09:43:22.461Z,109440
2017-08-19T09:44:22.459Z,61024
2017-08-19T09:45:22.545Z,167360
2017-08-19T09:46:22.487Z,44608
2017-08-19T09:47:22.454Z,87296
2017-08-19T09:48:22.509Z,36736
2017-08-19T09:49:22.458Z,114560
2017-08-19T09:50:22.483Z,133088
2017-08-19T09:51:22.456Z,148544
2017-08-19T09:52:22.533Z,149344
2017-08-19T09:53:22.484Z,146816
2017-08-19T09:54:22.529Z,147104
2017-08-19T09:55:22.518Z,143584
2017-08-19T09:56:22.548Z,137856
2017-08-19T09:57:22.525Z,139232
2017-08-19T09:58:22.483Z,141792
2017-08-19T09:59:22.500Z,149184
2017-08-19T10:00:22.487Z,157536
2017-08-19T10:01:22.470Z,151936
2017-08-19T10:02:22.504Z,163904
2017-08-19T10:03:22.499Z,119456
2017-08-19T10:04:22.470Z,155040
2017-08-19T10:05:22.524Z,78048
2017-08-19T10:06:22.507Z,41120
2017-08-19T10:07:22.506Z,64480
2017-08-19T10:08:22.521Z,44128
2017-08-19T10:09:22.565Z,42912
2017-08-19T10:10:22.522Z,82464
2017-08-19T10:11:22.467Z,60000
2017-08-19T10:12:22.533Z,51264
2017-08-19T10:13:22.544Z,65472
2017-08-19T10:14:22.459Z,185440
2017-08-19T10:15:22.465Z,133280
2017-08-19T10:16:22.529Z,186848
2017-08-19T10:17:22.468Z,73824
2017-08-19T10:18:22.494Z,65600
2017-08-19T10:19:22.529Z,61408
2017-08-19T10:20:22.534Z,61184
2017-08-19T10:21:22.529Z,61088
2017-08-19T10:22:22.510Z,62624
2017-08-19T10:23:22.537Z,72960
2017-08-19T10:24:22.476Z,146464
2017-08-19T10:25:22.511Z,182752
2017-08-19T10:26:22.540Z,64288
2017-08-19T10:27:22.533Z,59264
2017-08-19T10:28:22.570Z,148320
2017-08-19T10:29:22.505Z,158912
2017-08-19T10:30:22.507Z,60224
2017-08-19T10:31:22.576Z,182432
2017-08-19T10:32:22.479Z,70880
2017-08-19T10:33:22.516Z,133792
2017-08-19T10:34:22.488Z,207424
2017-08-19T10:35:22.507Z,68352
2017-08-19T10:36:22.489Z,54720
2017-08-19T10:37:22.525Z,52544
2017-08-19T10:38:22.491Z,49696
2017-08-19T10:39:22.513Z,63424
2017-08-19T10:40:22.515Z,32448
2017-08-19T10:41:22.581Z,26368
2017-08-19T10:42:22.581Z,23584
2017-08-19T10:43:22.561Z,23232
2017-08-19T10:44:22.499Z,22688
2017-08-19T10:45:22.508Z,22496
2017-08-19T10:46:22.482Z,23040
2017-08-19T10:47:22.511Z,24928
2017-08-19T10:48:22.513Z,28704
2017-08-19T10:49:22.510Z,33920
2017-08-19T10:50:22.549Z,41664
2017-08-19T10:51:22.513Z,49248
2017-08-19T10:52:22.549Z,52096
2017-08-19T10:53:22.514Z,54464
2017-08-19T10:54:22.549Z,58496
2017-08-19T10:55:22.552Z,50400
2017-08-19T10:56:22.556Z,52832
2017-08-19T10:57:22.535Z,48960
2017-08-19T10:58:22.586Z,44160
2017-08-19T10:59:22.495Z,42304
2017-08-19T11:00:22.526Z,43520
2017-08-19T11:01:22.503Z,48448
2017-08-19T11:02:22.528Z,125824
2017-08-19T11:03:22.493Z,158592
2017-08-19T11:04:22.505Z,164032
2017-08-19T11:05:22.521Z,101760
2017-08-19T11:06:22.522Z,101184
2017-08-19T11:07:22.525Z,190080
2017-08-19T11:08:22.526Z,91616
2017-08-19T11:09:22.492Z,94464
2017-08-19T11:10:22.526Z,104896
2017-08-19T11:11:22.561Z,92000
2017-08-19T11:12:22.564Z,81216
2017-08-19T11:13:22.562Z,76160
2017-08-19T11:14:22.563Z,84640
2017-08-19T11:15:22.530Z,91104
2017-08-19T11:16:22.569Z,77280
2017-08-19T11:17:22.569Z,70048
2017-08-19T11:18:22.547Z,70048
2017-08-19T11:19:22.542Z,77696
2017-08-19T11:20:22.544Z,160256
2017-08-19T11:21:22.584Z,89088
2017-08-19T11:22:22.513Z,111072
2017-08-19T11:23:22.603Z,88224
2017-08-19T11:24:22.585Z,104384
2017-08-19T11:25:22.570Z,85984
2017-08-19T11:26:22.545Z,81792
2017-08-19T11:27:22.587Z,156992
2017-08-19T11:28:22.610Z,73152
2017-08-19T11:29:22.604Z,68608
2017-08-19T11:30:22.551Z,63552
2017-08-19T11:31:22.546Z,57344
2017-08-19T11:32:22.521Z,52576
2017-08-19T11:33:22.607Z,52672
2017-08-19T11:34:22.613Z,56736
2017-08-19T11:35:22.575Z,58080
2017-08-19T11:36:22.548Z,55328
2017-08-19T11:37:22.524Z,55296
2017-08-19T11:38:22.542Z,55008
2017-08-19T11:39:22.517Z,49568
2017-08-19T11:40:22.512Z,40992
2017-08-19T11:41:22.544Z,31680
2017-08-19T11:42:22.538Z,24736
2017-08-19T11:43:22.549Z,22080
2017-08-19T11:44:22.522Z,23264
2017-08-19T11:45:22.579Z,27392
2017-08-19T11:46:22.517Z,31424
2017-08-19T11:47:22.552Z,34848
2017-08-19T11:48:22.582Z,37504
2017-08-19T11:49:22.553Z,40288
2017-08-19T11:50:22.591Z,45248
2017-08-19T11:51:22.580Z,50208
2017-08-19T11:52:22.585Z,52160
2017-08-19T11:53:22.547Z,59744
2017-08-19T11:54:22.551Z,55328
2017-08-19T11:55:22.620Z,52576
2017-08-19T11:56:22.603Z,47136
2017-08-19T11:57:22.584Z,43488
2017-08-19T11:58:22.624Z,41344
2017-08-19T11:59:22.566Z,40992
2017-08-19T12:00:22.599Z,43584
2017-08-19T12:01:22.574Z,46624
2017-08-19T12:02:22.626Z,48800
2017-08-19T12:03:22.627Z,49984
2017-08-19T12:04:22.603Z,50656
2017-08-19T12:05:22.577Z,52064
2017-08-19T12:06:22.557Z,53984
2017-08-19T12:07:22.534Z,55040
2017-08-19T12:08:22.559Z,53920
2017-08-19T12:09:22.574Z,51552
2017-08-19T12:10:22.578Z,48160
2017-08-19T12:11:22.536Z,43840
2017-08-19T12:12:22.563Z,40096
2017-08-19T12:13:22.584Z,38464
2017-08-19T12:14:22.595Z,38208
2017-08-19T12:15:22.539Z,38240
2017-08-19T12:16:22.559Z,38144
2017-08-19T12:17:22.546Z,38784
2017-08-19T12:18:22.633Z,39872
2017-08-19T12:19:22.587Z,41024
2017-08-19T12:20:22.585Z,42944
2017-08-19T12:21:22.833Z,46912
2017-08-19T12:22:22.568Z,52992
2017-08-19T12:23:22.620Z,71936
2017-08-19T12:24:22.603Z,82592
2017-08-19T12:25:22.543Z,72224
2017-08-19T12:26:22.520Z,72256
2017-08-19T12:27:22.570Z,74560
2017-08-19T12:28:22.614Z,81216
2017-08-19T12:29:22.548Z,90368
2017-08-19T12:30:22.548Z,65024
2017-08-19T12:31:22.546Z,62176
2017-08-19T12:32:22.574Z,56160
2017-08-19T12:33:22.553Z,50464
2017-08-19T12:34:22.576Z,43872
2017-08-19T12:35:22.580Z,39968
2017-08-19T12:36:22.523Z,39168
2017-08-19T12:37:22.532Z,41120
2017-08-19T12:38:22.561Z,46816
2017-08-19T12:39:22.582Z,56064
2017-08-19T12:40:22.528Z,67008
2017-08-19T12:41:22.618Z,73184
2017-08-19T12:42:22.566Z,82496
2017-08-19T12:43:22.571Z,106464
2017-08-19T12:44:22.575Z,101120
2017-08-19T12:45:22.558Z,97152
2017-08-19T12:46:22.587Z,107584
2017-08-19T12:47:22.593Z,103168
2017-08-19T12:48:22.566Z,107680
2017-08-19T12:49:22.563Z,112832
2017-08-19T12:50:22.591Z,124096
2017-08-19T12:51:22.569Z,150688
2017-08-19T12:52:22.600Z,88320
2017-08-19T12:53:22.601Z,117504
2017-08-19T12:54:22.621Z,80672
2017-08-19T12:55:22.541Z,69888
2017-08-19T12:56:22.568Z,61504
2017-08-19T12:57:22.522Z,56928
2017-08-19T12:58:22.562Z,53504
2017-08-19T12:59:22.593Z,50240
2017-08-19T13:00:22.565Z,49984
2017-08-19T13:01:22.520Z,56832
2017-08-19T13:02:22.593Z,55136
2017-08-19T13:03:22.549Z,50048
2017-08-19T13:04:22.551Z,44640
2017-08-19T13:05:22.610Z,38240
2017-08-19T13:06:22.663Z,33792
2017-08-19T13:07:22.606Z,31552
2017-08-19T13:08:22.671Z,33312
2017-08-19T13:09:22.578Z,41408
2017-08-19T13:10:22.602Z,56192
2017-08-19T13:11:22.597Z,83968
2017-08-19T13:12:22.614Z,175232
2017-08-19T13:13:22.603Z,65472
2017-08-19T13:14:22.574Z,63616
2017-08-19T13:15:22.577Z,61344
2017-08-19T13:16:22.651Z,56640
2017-08-19T13:17:22.610Z,51232
2017-08-19T13:18:22.669Z,45664
2017-08-19T13:19:22.576Z,40768
2017-08-19T13:20:22.617Z,38240
2017-08-19T13:21:22.738Z,36864
2017-08-19T13:22:22.602Z,39552
2017-08-19T13:23:22.676Z,40096
2017-08-19T13:24:22.676Z,40480
2017-08-19T13:25:22.617Z,130048